createdAt,value
2023-04-17T00:00:50.296Z,95894.66
2023-04-17T00:01:52.193Z,95892.72
2023-04-17T00:02:55.359Z,95896.63
2023-04-17T00:03:58.837Z,95893.09
2023-04-17T00:05:01.880Z,95900.53
2023-04-17T00:06:04.474Z,95891.16
2023-04-17T00:07:07.371Z,95889.59
2023-04-17T00:08:09.875Z,95894.31
2023-04-17T00:09:13.523Z,95888.06
2023-04-17T00:10:15.946Z,95892.72
2023-04-17T00:11:19.044Z,95895.06
2023-04-17T00:12:21.001Z,95895.06
2023-04-17T00:13:23.844Z,95891.97
2023-04-17T00:14:25.902Z,95897.44
2023-04-17T00:15:28.852Z,95886.50
2023-04-17T00:16:30.776Z,95889.25
2023-04-17T00:17:33.723Z,95884.97
2023-04-17T00:18:36.140Z,95885.75
2023-04-17T00:19:40.351Z,95890.44
2023-04-17T00:20:42.173Z,95884.97
2023-04-17T00:21:44.999Z,95884.19
2023-04-17T00:22:46.911Z,95884.97
2023-04-17T00:23:49.952Z,95886.16
2023-04-17T00:24:51.849Z,95884.97
2023-04-17T00:25:54.700Z,95881.88
2023-04-17T00:26:57.254Z,95881.13
2023-04-17T00:28:00.194Z,95881.44
2023-04-17T00:29:02.161Z,95881.88
2023-04-17T00:30:08.343Z,95881.88
2023-04-17T00:31:10.182Z,95882.28
2023-04-17T00:32:13.219Z,95880.31
2023-04-17T00:33:15.595Z,95883.03
2023-04-17T00:34:18.440Z,95882.28
2023-04-17T00:35:22.729Z,95876.06
2023-04-17T00:36:25.601Z,95884.25
2023-04-17T00:37:27.744Z,95882.69
2023-04-17T00:38:30.775Z,95875.28
2023-04-17T00:39:32.714Z,95876.06
2023-04-17T00:40:35.993Z,95872.56
2023-04-17T00:41:39.214Z,95879.94
2023-04-17T00:42:42.154Z,95871.75
2023-04-17T00:43:44.070Z,95877.22
2023-04-17T00:44:46.946Z,95873.72
2023-04-17T00:45:48.925Z,95877.66
2023-04-17T00:46:52.726Z,95874.16
2023-04-17T00:47:57.434Z,95872.59
2023-04-17T00:49:01.788Z,95874.91
2023-04-17T00:50:05.076Z,95880.38
2023-04-17T00:51:09.508Z,95876.09
2023-04-17T00:52:12.188Z,95869.84
2023-04-17T00:53:15.709Z,95869.84
2023-04-17T00:54:19.114Z,95884.28
2023-04-17T00:55:22.617Z,95869.84
2023-04-17T00:56:25.335Z,95878.03
2023-04-17T00:57:28.578Z,95884.28
2023-04-17T00:58:31.435Z,95871.81
2023-04-17T00:59:35.816Z,95876.50
2023-04-17T01:00:37.733Z,95881.97
2023-04-17T01:01:40.861Z,95873.78
2023-04-17T01:02:43.133Z,95880.41
2023-04-17T01:03:46.384Z,95875.72
2023-04-17T01:04:48.428Z,95872.22
2023-04-17T01:05:52.767Z,95870.69
2023-04-17T01:06:56.158Z,95867.97
2023-04-17T01:07:59.195Z,95874.19
2023-04-17T01:09:01.430Z,95879.63
2023-04-17T01:10:04.608Z,95874.94
2023-04-17T01:11:06.501Z,95867.97
2023-04-17T01:12:23.726Z,95872.66
2023-04-17T01:13:26.060Z,95870.69
2023-04-17T01:14:28.921Z,95871.84
2023-04-17T01:15:31.550Z,95866.41
2023-04-17T01:16:35.569Z,95864.84
2023-04-17T01:17:37.596Z,95871.84
2023-04-17T01:18:40.741Z,95872.28
2023-04-17T01:19:42.665Z,95874.56
2023-04-17T01:20:45.548Z,95868.34
2023-04-17T01:21:47.512Z,95871.09
2023-04-17T01:22:51.940Z,95866.41
2023-04-17T01:23:54.654Z,95871.09
2023-04-17T01:25:03.071Z,95869.13
2023-04-17T01:26:10.822Z,95873.81
2023-04-17T01:27:14.949Z,95880.03
2023-04-17T01:28:19.807Z,95872.66
2023-04-17T01:29:21.794Z,95875.78
2023-04-17T01:30:25.391Z,95875.78
2023-04-17T01:31:39.881Z,95870.31
2023-04-17T01:32:42.989Z,95881.22
2023-04-17T01:33:45.547Z,95864.84
2023-04-17T01:34:48.387Z,95878.50
2023-04-17T01:35:50.414Z,95879.28
2023-04-17T01:36:53.279Z,95873.03
2023-04-17T01:37:55.798Z,95877.31
2023-04-17T01:38:58.778Z,95873.03
2023-04-17T01:40:02.220Z,95872.28
2023-04-17T01:41:09.724Z,95875.78
2023-04-17T01:42:11.650Z,95871.09
2023-04-17T01:43:14.448Z,95869.56
2023-04-17T01:44:16.340Z,95870.31
2023-04-17T01:45:19.406Z,95868.75
2023-04-17T01:46:21.476Z,95870.31
2023-04-17T01:47:25.300Z,95869.56
2023-04-17T01:48:27.909Z,95872.28
2023-04-17T01:49:31.558Z,95876.94
2023-04-17T01:50:33.420Z,95867.97
2023-04-17T01:51:36.344Z,95875.00
2023-04-17T01:52:39.791Z,95864.09
2023-04-17T01:53:42.732Z,95875.78
2023-04-17T01:54:44.633Z,95876.94
2023-04-17T01:55:48.805Z,95873.44
2023-04-17T01:56:50.802Z,95871.13
2023-04-17T01:57:54.156Z,95877.38
2023-04-17T01:58:56.077Z,95875.03
2023-04-17T01:59:58.930Z,95874.25
2023-04-17T02:01:00.812Z,95875.81
2023-04-17T02:02:03.802Z,95875.03
2023-04-17T02:03:06.125Z,95871.94
2023-04-17T02:04:09.363Z,95874.66
2023-04-17T02:05:11.465Z,95879.34
2023-04-17T02:06:14.388Z,95877.41
2023-04-17T02:07:16.620Z,95873.13
2023-04-17T02:08:19.457Z,95873.13
2023-04-17T02:09:21.396Z,95874.28
2023-04-17T02:10:26.973Z,95868.84
2023-04-17T02:11:30.203Z,95874.28
2023-04-17T02:12:33.013Z,95877.81
2023-04-17T02:13:34.835Z,95874.28
2023-04-17T02:14:38.955Z,95870.03
2023-04-17T02:15:41.064Z,95874.28
2023-04-17T02:16:45.543Z,95873.53
2023-04-17T02:17:47.471Z,95873.53
2023-04-17T02:18:51.333Z,95872.75
2023-04-17T02:19:53.482Z,95864.56
2023-04-17T02:20:56.309Z,95866.53
2023-04-17T02:21:58.162Z,95873.94
2023-04-17T02:23:01.599Z,95869.66
2023-04-17T02:24:06.754Z,95869.66
2023-04-17T02:25:09.911Z,95861.88
2023-04-17T02:26:11.821Z,95868.91
2023-04-17T02:27:16.381Z,95868.13
2023-04-17T02:28:18.783Z,95868.13
2023-04-17T02:29:21.728Z,95866.56
2023-04-17T02:30:24.726Z,95873.59
2023-04-17T02:31:30.093Z,95868.13
2023-04-17T02:32:32.086Z,95871.25
2023-04-17T02:33:36.354Z,95867.75
2023-04-17T02:34:38.254Z,95867.75
2023-04-17T02:35:41.513Z,95872.03
2023-04-17T02:36:43.429Z,95872.03
2023-04-17T02:37:46.474Z,95879.44
2023-04-17T02:38:48.940Z,95872.03
2023-04-17T02:39:52.033Z,95870.50
2023-04-17T02:40:53.957Z,95872.03
2023-04-17T02:41:57.483Z,95872.03
2023-04-17T02:43:00.854Z,95873.59
2023-04-17T02:44:04.751Z,95872.03
2023-04-17T02:45:09.269Z,95882.94
2023-04-17T02:46:12.080Z,95882.94
2023-04-17T02:47:13.994Z,95874.75
2023-04-17T02:48:17.650Z,95880.22
2023-04-17T02:49:19.558Z,95872.78
2023-04-17T02:50:22.451Z,95872.03
2023-04-17T02:51:39.214Z,95875.94
2023-04-17T02:52:42.135Z,95876.31
2023-04-17T02:53:43.976Z,95877.47
2023-04-17T02:54:46.932Z,95874.75
2023-04-17T02:55:52.121Z,95880.22
2023-04-17T02:56:58.533Z,95875.13
2023-04-17T02:58:02.117Z,95872.03
2023-04-17T02:59:04.973Z,95874.75
2023-04-17T03:00:08.149Z,95873.97
2023-04-17T03:01:11.592Z,95872.03
2023-04-17T03:02:21.777Z,95866.56
2023-04-17T03:03:25.173Z,95874.75
2023-04-17T03:04:28.022Z,95869.28
2023-04-17T03:05:31.282Z,95862.31
2023-04-17T03:06:35.292Z,95869.28
2023-04-17T03:07:40.503Z,95870.50
2023-04-17T03:08:43.492Z,95873.22
2023-04-17T03:09:47.221Z,95870.50
2023-04-17T03:10:49.427Z,95863.84
2023-04-17T03:11:52.737Z,95866.56
2023-04-17T03:12:54.838Z,95866.56
2023-04-17T03:13:59.071Z,95865.81
2023-04-17T03:15:01.225Z,95866.56
2023-04-17T03:16:07.153Z,95866.56
2023-04-17T03:17:14.108Z,95872.78
2023-04-17T03:18:17.449Z,95872.78
2023-04-17T03:19:19.269Z,95879.44
2023-04-17T03:20:22.112Z,95868.13
2023-04-17T03:21:23.953Z,95865.81
2023-04-17T03:22:26.927Z,95866.56
2023-04-17T03:23:28.785Z,95866.56
2023-04-17T03:24:32.861Z,95863.84
2023-04-17T03:25:36.524Z,95867.34
2023-04-17T03:26:39.534Z,95862.31
2023-04-17T03:27:46.764Z,95867.34
2023-04-17T03:28:50.765Z,95861.09
2023-04-17T03:29:54.830Z,95866.56
2023-04-17T03:30:59.492Z,95869.28
2023-04-17T03:32:01.686Z,95861.09
2023-04-17T03:33:05.508Z,95869.28
2023-04-17T03:34:07.855Z,95860.34
2023-04-17T03:35:10.754Z,95861.09
2023-04-17T03:36:13.559Z,95865.03
2023-04-17T03:37:15.660Z,95863.47
2023-04-17T03:38:19.411Z,95862.31
2023-04-17T03:39:22.122Z,95865.03
2023-04-17T03:40:25.108Z,95861.09
2023-04-17T03:41:26.960Z,95866.56
2023-04-17T03:42:30.261Z,95864.22
2023-04-17T03:43:32.138Z,95861.09
2023-04-17T03:44:35.088Z,95865.03
2023-04-17T03:45:38.337Z,95859.56
2023-04-17T03:46:41.271Z,95863.06
2023-04-17T03:47:43.210Z,95863.06
2023-04-17T03:48:46.174Z,95866.56
2023-04-17T03:49:48.034Z,95866.19
2023-04-17T03:50:52.495Z,95866.56
2023-04-17T03:51:54.482Z,95865.81
2023-04-17T03:52:58.270Z,95868.53
2023-04-17T03:54:02.235Z,95875.94
2023-04-17T03:55:07.213Z,95880.59
2023-04-17T03:56:09.309Z,95872.03
2023-04-17T03:57:15.059Z,95882.16
2023-04-17T03:58:17.067Z,95881.41
2023-04-17T03:59:19.957Z,95884.13
2023-04-17T04:00:21.992Z,95878.97
2023-04-17T04:01:30.444Z,95887.50
2023-04-17T04:02:46.821Z,95880.09
2023-04-17T04:03:53.983Z,95883.59
2023-04-17T04:04:57.432Z,95883.59
2023-04-17T04:06:00.248Z,95887.84
2023-04-17T04:07:02.226Z,95881.22
2023-04-17T04:08:06.073Z,95881.22
2023-04-17T04:09:17.455Z,95882.00
2023-04-17T04:10:21.337Z,95890.94
2023-04-17T04:11:23.228Z,95879.66
2023-04-17T04:12:26.214Z,95882.41
2023-04-17T04:13:28.099Z,95886.69
2023-04-17T04:14:34.273Z,95885.13
2023-04-17T04:15:38.193Z,95887.09
2023-04-17T04:16:43.279Z,95877.84
2023-04-17T04:17:47.247Z,95889.16
2023-04-17T04:18:50.215Z,95891.13
2023-04-17T04:19:53.157Z,95892.31
2023-04-17T04:20:57.018Z,95892.31
2023-04-17T04:22:03.361Z,95889.59
2023-04-17T04:23:16.680Z,95888.38
2023-04-17T04:24:20.228Z,95893.84
2023-04-17T04:25:23.350Z,95896.13
2023-04-17T04:26:40.984Z,95895.41
2023-04-17T04:27:49.473Z,95895.81
2023-04-17T04:28:56.540Z,95892.31
2023-04-17T04:30:10.427Z,95897.75
2023-04-17T04:31:18.766Z,95898.53
2023-04-17T04:32:25.592Z,95905.56
2023-04-17T04:33:27.737Z,95897.41
2023-04-17T04:34:31.107Z,95904.00
2023-04-17T04:35:32.976Z,95898.56
2023-04-17T04:36:41.962Z,95904.00
2023-04-17T04:37:51.323Z,95906.75
2023-04-17T04:38:59.679Z,95901.28
2023-04-17T04:40:09.349Z,95903.25
2023-04-17T04:41:14.826Z,95900.50
2023-04-17T04:42:21.994Z,95903.25
2023-04-17T04:43:50.588Z,95902.09
2023-04-17T04:44:52.502Z,95905.56
2023-04-17T04:45:56.247Z,95904.00
2023-04-17T04:47:00.648Z,95904.00
2023-04-17T04:48:05.174Z,95904.00
2023-04-17T04:49:07.037Z,95904.00
2023-04-17T04:50:11.869Z,95898.56
2023-04-17T04:51:13.811Z,95904.00
2023-04-17T04:52:18.247Z,95909.38
2023-04-17T04:53:20.562Z,95907.03
2023-04-17T04:54:30.826Z,95908.59
2023-04-17T04:55:35.644Z,95911.72
2023-04-17T04:56:38.572Z,95909.38
2023-04-17T04:57:40.494Z,95910.94
2023-04-17T04:58:43.377Z,95906.66
2023-04-17T04:59:45.721Z,95910.94
2023-04-17T05:01:09.258Z,95917.94
2023-04-17T05:02:15.835Z,95918.75
2023-04-17T05:03:22.463Z,95917.94
2023-04-17T05:04:26.955Z,95916.78
2023-04-17T05:05:35.850Z,95919.50
2023-04-17T05:06:38.368Z,95921.03
2023-04-17T05:07:41.344Z,95923.00
2023-04-17T05:08:46.318Z,95921.81
2023-04-17T05:09:51.117Z,95917.16
2023-04-17T05:10:53.067Z,95922.59
2023-04-17T05:11:57.018Z,95921.41
2023-04-17T05:12:59.734Z,95920.25
2023-04-17T05:14:02.871Z,95912.06
2023-04-17T05:15:10.292Z,95912.47
2023-04-17T05:16:13.691Z,95903.88
2023-04-17T05:17:15.621Z,95906.25
2023-04-17T05:18:18.492Z,95898.44
2023-04-17T05:19:22.202Z,95897.22
2023-04-17T05:20:37.690Z,95889.03
2023-04-17T05:21:40.250Z,95886.69
2023-04-17T05:22:44.339Z,95885.13
2023-04-17T05:23:48.171Z,95890.56
2023-04-17T05:24:50.979Z,95889.41
2023-04-17T05:25:52.867Z,95892.16
2023-04-17T05:26:56.918Z,95893.59
2023-04-17T05:27:59.729Z,95898.25
2023-04-17T05:29:03.308Z,95899.03
2023-04-17T05:30:08.254Z,95899.78
2023-04-17T05:31:11.868Z,95900.56
2023-04-17T05:32:16.810Z,95910.31
2023-04-17T05:33:26.731Z,95905.63
2023-04-17T05:34:35.009Z,95905.63
2023-04-17T05:35:39.433Z,95917.28
2023-04-17T05:36:42.592Z,95909.91
2023-04-17T05:37:45.645Z,95911.47
2023-04-17T05:38:47.530Z,95916.25
2023-04-17T05:39:50.573Z,95918.59
2023-04-17T05:40:54.450Z,95913.16
2023-04-17T05:41:56.446Z,95920.56
2023-04-17T05:42:59.323Z,95919.81
2023-04-17T05:44:01.406Z,95915.97
2023-04-17T05:45:04.936Z,95913.22
2023-04-17T05:46:08.223Z,95921.41
2023-04-17T05:47:11.069Z,95914.78
2023-04-17T05:48:14.129Z,95917.53
2023-04-17T05:49:16.021Z,95919.81
2023-04-17T05:50:20.442Z,95924.50
2023-04-17T05:51:22.327Z,95923.41
2023-04-17T05:52:25.469Z,95926.56
2023-04-17T05:53:27.507Z,95926.56
2023-04-17T05:54:33.538Z,95925.03
2023-04-17T05:55:35.850Z,95920.75
2023-04-17T05:56:41.613Z,95926.56
2023-04-17T05:57:43.529Z,95932.03
2023-04-17T05:58:47.005Z,95926.56
2023-04-17T05:59:49.861Z,95923.09
2023-04-17T06:00:53.353Z,95932.03
2023-04-17T06:01:55.700Z,95932.81
2023-04-17T06:02:59.692Z,95930.88
2023-04-17T06:04:08.978Z,95932.03
2023-04-17T06:05:12.330Z,95936.31
2023-04-17T06:06:15.934Z,95931.63
2023-04-17T06:07:19.546Z,95931.63
2023-04-17T06:08:21.577Z,95933.59
2023-04-17T06:09:25.793Z,95930.06
2023-04-17T06:10:27.992Z,95939.38
2023-04-17T06:11:31.201Z,95936.25
2023-04-17T06:12:33.521Z,95936.25
2023-04-17T06:13:38.671Z,95925.34
2023-04-17T06:14:41.062Z,95931.97
2023-04-17T06:15:45.862Z,95931.97
2023-04-17T06:16:49.536Z,95934.69
2023-04-17T06:17:52.993Z,95937.41
2023-04-17T06:18:55.033Z,95942.88
2023-04-17T06:19:58.035Z,95938.19
2023-04-17T06:21:01.065Z,95942.88
2023-04-17T06:22:05.237Z,95938.97
2023-04-17T06:23:08.107Z,95938.06
2023-04-17T06:24:09.973Z,95936.19
2023-04-17T06:25:18.104Z,95942.88
2023-04-17T06:26:21.309Z,95949.09
2023-04-17T06:27:26.520Z,95940.13
2023-04-17T06:28:29.094Z,95941.34
2023-04-17T06:29:32.673Z,95949.09
2023-04-17T06:30:35.106Z,95949.09
2023-04-17T06:31:38.797Z,95947.56
2023-04-17T06:32:42.514Z,95951.81
2023-04-17T06:33:47.675Z,95945.97
2023-04-17T06:34:59.216Z,95949.88
2023-04-17T06:36:15.107Z,95951.44
2023-04-17T06:37:27.189Z,95955.34
2023-04-17T06:38:29.069Z,95956.88
2023-04-17T06:39:34.073Z,95950.25
2023-04-17T06:40:36.590Z,95951.44
2023-04-17T06:41:41.825Z,95947.53
2023-04-17T06:42:43.668Z,95953.00
2023-04-17T06:43:55.839Z,95950.25
2023-04-17T06:44:57.745Z,95953.00
2023-04-17T06:46:00.684Z,95954.53
2023-04-17T06:47:04.968Z,95960.75
2023-04-17T06:48:07.312Z,95952.56
2023-04-17T06:49:10.458Z,95956.06
2023-04-17T06:50:12.561Z,95947.09
2023-04-17T06:51:15.463Z,95956.06
2023-04-17T06:52:20.130Z,95956.06
2023-04-17T06:53:24.424Z,95954.53
2023-04-17T06:54:27.727Z,95960.75
2023-04-17T06:55:30.884Z,95958.78
2023-04-17T06:56:35.245Z,95965.81
2023-04-17T06:57:38.093Z,95962.31
2023-04-17T06:58:44.207Z,95964.63
2023-04-17T06:59:46.443Z,95965.41
2023-04-17T07:00:49.334Z,95963.84
2023-04-17T07:01:51.469Z,95968.53
2023-04-17T07:02:54.492Z,95963.09
2023-04-17T07:03:56.538Z,95965.81
2023-04-17T07:04:59.525Z,95969.31
2023-04-17T07:06:01.383Z,95963.09
2023-04-17T07:07:04.670Z,95964.63
2023-04-17T07:08:06.600Z,95961.50
2023-04-17T07:09:10.907Z,95958.00
2023-04-17T07:10:15.677Z,95967.72
2023-04-17T07:11:18.695Z,95967.72
2023-04-17T07:12:22.665Z,95969.28
2023-04-17T07:13:24.776Z,95963.81
2023-04-17T07:14:27.637Z,95959.91
2023-04-17T07:15:31.266Z,95964.59
2023-04-17T07:16:34.308Z,95964.59
2023-04-17T07:17:36.285Z,95966.94
2023-04-17T07:18:39.261Z,95959.91
2023-04-17T07:19:41.116Z,95969.66
2023-04-17T07:20:44.031Z,95969.66
2023-04-17T07:21:46.940Z,95968.47
2023-04-17T07:22:50.992Z,95971.97
2023-04-17T07:23:54.737Z,95970.00
2023-04-17T07:24:57.955Z,95968.47
2023-04-17T07:26:00.822Z,95971.56
2023-04-17T07:27:02.975Z,95977.03
2023-04-17T07:28:06.012Z,95970.00
2023-04-17T07:29:07.918Z,95968.06
2023-04-17T07:30:11.408Z,95975.06
2023-04-17T07:31:14.420Z,95970.38
2023-04-17T07:32:16.350Z,95971.16
2023-04-17T07:33:19.979Z,95972.69
2023-04-17T07:34:25.140Z,95974.66
2023-04-17T07:35:28.181Z,95976.97
2023-04-17T07:36:31.094Z,95969.19
2023-04-17T07:37:36.945Z,95970.00
2023-04-17T07:38:41.238Z,95975.44
2023-04-17T07:39:43.287Z,95973.91
2023-04-17T07:40:47.573Z,95980.56
2023-04-17T07:41:49.728Z,95979.38
2023-04-17T07:42:52.811Z,95970.81
2023-04-17T07:43:57.800Z,95976.28
2023-04-17T07:45:00.772Z,95976.28
2023-04-17T07:46:03.656Z,95971.22
2023-04-17T07:47:05.719Z,95980.19
2023-04-17T07:48:09.592Z,95981.34
2023-04-17T07:49:12.704Z,95979.00
2023-04-17T07:50:15.906Z,95981.72
2023-04-17T07:51:18.898Z,95981.72
2023-04-17T07:52:20.838Z,95980.19
2023-04-17T07:53:25.641Z,95980.59
2023-04-17T07:54:27.619Z,95975.91
2023-04-17T07:55:30.900Z,95985.66
2023-04-17T07:56:36.564Z,95984.84
2023-04-17T07:57:42.571Z,95990.31
2023-04-17T07:58:46.466Z,95984.09
2023-04-17T07:59:48.389Z,95989.53
2023-04-17T08:00:52.026Z,95990.75
2023-04-17T08:01:54.061Z,95998.16
2023-04-17T08:02:58.379Z,95991.50
2023-04-17T08:04:01.422Z,95995.00
2023-04-17T08:05:05.887Z,95998.91
2023-04-17T08:06:09.031Z,95995.00
2023-04-17T08:07:13.133Z,96005.91
2023-04-17T08:08:16.400Z,96000.47
2023-04-17T08:09:19.296Z,96002.03
2023-04-17T08:10:22.623Z,96002.81
2023-04-17T08:11:24.641Z,96004.38
2023-04-17T08:12:28.868Z,96002.81
2023-04-17T08:13:32.347Z,96003.59
2023-04-17T08:14:34.296Z,96009.06
2023-04-17T08:15:40.698Z,96008.28
2023-04-17T08:16:42.718Z,96012.97
2023-04-17T08:17:45.864Z,96002.81
2023-04-17T08:18:48.858Z,96003.59
2023-04-17T08:19:53.559Z,96008.28
2023-04-17T08:20:56.584Z,96015.28
2023-04-17T08:22:03.071Z,96008.28
2023-04-17T08:23:06.182Z,95998.91
2023-04-17T08:24:08.343Z,96010.59
2023-04-17T08:25:12.360Z,96007.47
2023-04-17T08:26:18.165Z,96012.94
2023-04-17T08:27:20.154Z,96007.47
2023-04-17T08:28:24.493Z,96007.06
2023-04-17T08:29:26.956Z,96011.34
2023-04-17T08:30:29.833Z,96005.47
2023-04-17T08:31:32.056Z,96006.66
2023-04-17T08:32:39.248Z,96009.38
2023-04-17T08:33:42.192Z,96008.19
2023-04-17T08:34:44.870Z,96010.94
2023-04-17T08:35:48.037Z,96008.19
2023-04-17T08:36:50.891Z,96012.13
2023-04-17T08:37:55.367Z,96014.44
2023-04-17T08:38:58.489Z,96009.00
2023-04-17T08:40:01.390Z,96015.22
2023-04-17T08:41:06.189Z,96007.81
2023-04-17T08:42:14.608Z,96008.56
2023-04-17T08:43:22.242Z,96010.13
2023-04-17T08:44:27.043Z,96008.19
2023-04-17T08:45:30.134Z,96008.94
2023-04-17T08:46:32.201Z,96008.94
2023-04-17T08:47:35.657Z,96013.63
2023-04-17T08:48:38.613Z,96017.91
2023-04-17T08:49:43.755Z,96010.50
2023-04-17T08:50:49.892Z,96013.25
2023-04-17T08:51:52.851Z,96017.50
2023-04-17T08:52:55.641Z,96022.97
2023-04-17T08:53:57.525Z,96015.97
2023-04-17T08:55:02.151Z,96019.09
2023-04-17T08:56:08.925Z,96017.56
2023-04-17T08:57:11.160Z,96014.81
2023-04-17T08:58:15.134Z,96012.88
2023-04-17T08:59:18.163Z,96011.31
2023-04-17T09:00:29.616Z,96016.38
2023-04-17T09:01:33.800Z,96014.41
2023-04-17T09:02:52.879Z,96026.09
2023-04-17T09:03:57.234Z,96019.84
2023-04-17T09:05:01.096Z,96023.78
2023-04-17T09:06:03.316Z,96023.78
2023-04-17T09:07:06.608Z,96023.78
2023-04-17T09:08:12.319Z,96018.31
2023-04-17T09:09:15.631Z,96023.78
2023-04-17T09:10:17.634Z,96013.63
2023-04-17T09:11:21.443Z,96017.44
2023-04-17T09:12:26.134Z,96018.56
2023-04-17T09:13:29.482Z,96019.75
2023-04-17T09:14:32.449Z,96014.28
2023-04-17T09:15:37.391Z,96010.34
2023-04-17T09:16:54.537Z,96011.88
2023-04-17T09:17:57.507Z,96020.50
2023-04-17T09:19:07.877Z,96014.63
2023-04-17T09:20:12.144Z,96014.63
2023-04-17T09:21:18.557Z,96017.34
2023-04-17T09:22:22.042Z,96019.69
2023-04-17T09:23:24.974Z,96022.88
2023-04-17T09:24:34.633Z,96014.31
2023-04-17T09:25:37.529Z,96013.56
2023-04-17T09:26:39.419Z,96014.31
2023-04-17T09:27:42.254Z,96015.13
2023-04-17T09:29:04.750Z,96024.84
2023-04-17T09:30:08.004Z,96018.63
2023-04-17T09:31:27.636Z,96018.22
2023-04-17T09:32:31.876Z,96014.31
2023-04-17T09:33:34.773Z,96020.13
2023-04-17T09:34:41.160Z,96022.09
2023-04-17T09:35:44.063Z,96023.63
2023-04-17T09:36:46.937Z,96019.75
2023-04-17T09:37:50.658Z,96019.75
2023-04-17T09:38:53.621Z,96014.28
2023-04-17T09:39:57.737Z,96025.19
2023-04-17T09:41:00.593Z,96017.34
2023-04-17T09:42:06.108Z,96020.44
2023-04-17T09:43:10.437Z,96025.13
2023-04-17T09:44:26.526Z,96025.91
2023-04-17T09:45:33.327Z,96024.75
2023-04-17T09:46:40.604Z,96023.56
2023-04-17T09:47:44.650Z,96025.88
2023-04-17T09:48:50.432Z,96025.88
2023-04-17T09:49:53.977Z,96026.66
2023-04-17T09:50:56.375Z,96021.97
2023-04-17T09:51:59.529Z,96030.16
2023-04-17T09:53:04.210Z,96030.94
2023-04-17T09:54:07.114Z,96029.00
2023-04-17T09:55:11.269Z,96025.81
2023-04-17T09:56:13.677Z,96027.41
2023-04-17T09:57:16.763Z,96030.53
2023-04-17T09:58:19.998Z,96023.91
2023-04-17T09:59:23.555Z,96026.63
2023-04-17T10:00:30.039Z,96024.28
2023-04-17T10:01:33.784Z,96026.63
2023-04-17T10:02:39.183Z,96032.84
2023-04-17T10:03:42.937Z,96019.22
2023-04-17T10:04:47.032Z,96025.03
2023-04-17T10:05:50.003Z,96026.56
2023-04-17T10:06:52.360Z,96021.88
2023-04-17T10:07:56.088Z,96022.69
2023-04-17T10:08:58.221Z,96023.44
2023-04-17T10:10:02.033Z,96023.44
2023-04-17T10:11:05.998Z,96026.94
2023-04-17T10:12:12.785Z,96017.59
2023-04-17T10:13:16.676Z,96021.09
2023-04-17T10:14:24.765Z,96023.03
2023-04-17T10:15:28.735Z,96018.34
2023-04-17T10:16:35.587Z,96017.16
2023-04-17T10:17:40.076Z,96017.53
2023-04-17T10:18:42.919Z,96014.03
2023-04-17T10:19:44.821Z,96015.56
2023-04-17T10:20:48.589Z,96016.38
2023-04-17T10:22:29.983Z,96016.72
2023-04-17T10:23:34.480Z,96011.63
2023-04-17T10:24:36.419Z,96010.03
2023-04-17T10:25:39.312Z,96008.47
2023-04-17T10:26:41.284Z,96016.28
2023-04-17T10:27:45.396Z,96005.72
2023-04-17T10:28:49.739Z,96007.66
2023-04-17T10:29:55.978Z,96007.63
2023-04-17T10:31:01.229Z,96012.31
2023-04-17T10:32:25.681Z,96001.41
2023-04-17T10:33:30.138Z,95998.66
2023-04-17T10:34:35.616Z,95999.84
2023-04-17T10:35:38.504Z,95995.94
2023-04-17T10:36:50.033Z,96000.19
2023-04-17T10:38:11.423Z,95995.94
2023-04-17T10:39:14.353Z,95989.28
2023-04-17T10:40:21.676Z,95996.69
2023-04-17T10:41:24.932Z,95994.38
2023-04-17T10:42:29.577Z,95985.41
2023-04-17T10:43:32.808Z,95992.84
2023-04-17T10:44:34.787Z,95992.84
2023-04-17T10:45:58.820Z,95993.22
2023-04-17T10:47:06.598Z,95980.72
2023-04-17T10:48:21.333Z,95993.97
2023-04-17T10:49:25.868Z,95987.75
2023-04-17T10:50:28.877Z,95993.22
2023-04-17T10:51:42.541Z,95992.00
2023-04-17T10:52:45.741Z,95986.53
2023-04-17T10:53:49.087Z,95989.28
2023-04-17T10:55:04.420Z,95986.53
2023-04-17T10:56:06.591Z,95986.16
2023-04-17T10:57:11.712Z,95991.59
2023-04-17T10:58:13.781Z,95988.13
2023-04-17T10:59:17.537Z,95986.91
2023-04-17T11:00:21.794Z,95989.66
2023-04-17T11:01:27.585Z,95986.50
2023-04-17T11:02:34.930Z,95986.50
2023-04-17T11:03:37.582Z,95987.28
2023-04-17T11:04:41.814Z,95993.50
2023-04-17T11:05:45.480Z,95995.84
2023-04-17T11:06:48.527Z,95990.38
2023-04-17T11:07:51.550Z,95994.66
2023-04-17T11:08:57.350Z,95983.72
2023-04-17T11:09:59.631Z,95981.00
2023-04-17T11:11:02.571Z,95987.22
2023-04-17T11:12:04.801Z,95987.22
2023-04-17T11:13:07.769Z,95980.22
2023-04-17T11:14:13.517Z,95976.28
2023-04-17T11:15:17.865Z,95983.72
2023-04-17T11:16:22.313Z,95983.72
2023-04-17T11:17:24.307Z,95978.63
2023-04-17T11:18:27.573Z,95979.41
2023-04-17T11:19:30.596Z,95982.13
2023-04-17T11:20:37.449Z,95975.91
2023-04-17T11:21:39.856Z,95974.72
2023-04-17T11:22:44.703Z,95972.34
2023-04-17T11:23:52.174Z,95979.34
2023-04-17T11:24:54.105Z,95973.91
2023-04-17T11:25:56.946Z,95975.44
2023-04-17T11:27:02.103Z,95976.22
2023-04-17T11:28:06.943Z,95972.31
2023-04-17T11:29:14.342Z,95975.81
2023-04-17T11:30:25.340Z,95975.81
2023-04-17T11:31:29.912Z,95971.09
2023-04-17T11:32:36.236Z,95959.78
2023-04-17T11:33:39.178Z,95975.00
2023-04-17T11:34:41.883Z,95965.59
2023-04-17T11:35:46.995Z,95968.31
2023-04-17T11:36:49.525Z,95962.84
2023-04-17T11:38:13.986Z,95976.53
2023-04-17T11:39:16.287Z,95964.38
2023-04-17T11:40:24.069Z,95961.25
2023-04-17T11:41:36.930Z,95951.06
2023-04-17T11:42:44.745Z,95958.06
2023-04-17T11:43:47.659Z,95965.88
2023-04-17T11:44:49.575Z,95963.50
2023-04-17T11:45:54.149Z,95965.03
2023-04-17T11:46:58.631Z,95959.56
2023-04-17T11:48:02.288Z,95957.19
2023-04-17T11:49:05.288Z,95960.28
2023-04-17T11:50:07.722Z,95961.88
2023-04-17T11:51:13.571Z,95956.41
2023-04-17T11:52:17.651Z,95957.94
2023-04-17T11:53:20.899Z,95959.47
2023-04-17T11:54:26.601Z,95943.06
2023-04-17T11:55:31.282Z,95958.66
2023-04-17T11:56:34.300Z,95950.03
2023-04-17T11:57:43.206Z,95954.69
2023-04-17T11:58:47.546Z,95950.72
2023-04-17T11:59:50.741Z,95950.72
2023-04-17T12:01:04.937Z,95947.56
2023-04-17T12:02:09.283Z,95952.97
2023-04-17T12:03:31.212Z,95952.22
2023-04-17T12:04:35.358Z,95945.97
2023-04-17T12:05:38.710Z,95950.59
2023-04-17T12:06:42.981Z,95950.59
2023-04-17T12:07:45.625Z,95946.66
2023-04-17T12:08:51.163Z,95952.94
2023-04-17T12:09:56.711Z,95952.13
2023-04-17T12:10:59.651Z,95952.13
2023-04-17T12:12:04.079Z,95949.84
2023-04-17T12:13:07.210Z,95946.66
2023-04-17T12:14:12.155Z,95945.91
2023-04-17T12:15:14.754Z,95946.66
2023-04-17T12:16:17.917Z,95946.66
2023-04-17T12:17:21.279Z,95950.53
2023-04-17T12:18:24.296Z,95945.41
2023-04-17T12:19:29.166Z,95945.78
2023-04-17T12:20:33.819Z,95943.03
2023-04-17T12:21:36.853Z,95938.69
2023-04-17T12:22:40.299Z,95949.22
2023-04-17T12:23:43.341Z,95940.66
2023-04-17T12:24:46.087Z,95942.19
2023-04-17T12:25:48.941Z,95934.00
2023-04-17T12:26:52.469Z,95934.00
2023-04-17T12:27:56.024Z,95934.00
2023-04-17T12:28:58.915Z,95944.94
2023-04-17T12:30:02.697Z,95943.41
2023-04-17T12:31:07.670Z,95940.66
2023-04-17T12:32:10.801Z,95936.38
2023-04-17T12:33:13.904Z,95937.94
2023-04-17T12:34:15.698Z,95941.84
2023-04-17T12:35:18.873Z,95936.38